CST,Max TemperatureF,Mean TemperatureF,Min TemperatureF,Max Dew PointF,MeanDew PointF,Min DewpointF,Max Humidity, Mean Humidity, Min Humidity, Max Sea Level PressureIn, Mean Sea Level PressureIn, Min Sea Level PressureIn, Max VisibilityMiles, Mean VisibilityMiles, Min VisibilityMiles, Max Wind SpeedMPH, Mean Wind SpeedMPH, Max Gust SpeedMPH,PrecipitationIn, CloudCover, Events, WindDirDegrees
2012-10-1,86,80,75,79,77,73,94,83,74,29.86,29.82,29.77,6,6,5,7,3,,0.00,-996,Thunderstorm,115
2012-10-2,89,83,77,81,77,73,100,82,59,29.89,29.85,29.80,6,5,2,7,2,,0.00,3,Rain-Thunderstorm,242
2012-10-3,91,82,73,79,75,72,94,76,55,29.92,29.86,29.80,6,5,1,7,2,,0.00,3,Rain-Thunderstorm,8
2012-10-4,91,83,75,79,73,70,94,64,52,29.95,29.88,29.83,6,6,1,5,4,,0.00,3,Rain-Thunderstorm,35
2012-10-5,91,81,71,75,72,70,94,64,49,29.89,29.84,29.77,6,6,6,7,1,,0.00,2,,190
2012-10-6,87,81,75,77,75,72,89,76,66,29.83,29.79,29.71,6,5,4,7,2,,0.00,3,Rain-Thunderstorm,103
2012-10-7,87,81,75,79,76,75,100,82,70,29.86,29.81,29.77,6,5,2,7,1,,0.00,3,Rain-Thunderstorm,140
2012-10-8,89,83,77,79,76,73,94,79,59,29.86,29.83,29.80,6,5,2,9,7,,0.00,4,Rain-Thunderstorm,112
2012-10-9,84,80,75,77,76,73,100,91,74,29.92,29.88,29.83,6,5,2,5,2,,0.00,4,Rain-Thunderstorm,356
2012-10-10,87,81,75,79,77,73,100,85,70,29.95,29.90,29.80,6,6,5,7,1,,0.00,4,Thunderstorm,123
2012-10-11,89,81,73,79,76,72,94,76,62,29.92,29.87,29.80,6,6,5,5,2,,0.00,3,Thunderstorm,340
2012-10-12,91,84,78,77,73,68,94,63,49,29.92,29.85,29.77,6,6,6,5,3,,0.00,1,,160
2012-10-13,89,84,78,77,76,73,94,73,62,29.89,29.84,29.77,6,6,6,7,3,,0.00,2,,208
2012-10-14,87,80,73,75,74,72,94,76,58,29.89,29.84,29.77,6,5,2,7,2,,0.00,2,Thunderstorm,256
2012-10-15,86,80,73,75,74,72,100,82,66,29.92,29.84,29.77,6,6,6,7,1,,0.00,3,,190
2012-10-16,89,83,77,77,75,73,94,73,62,29.89,29.83,29.74,6,6,6,9,3,,0.00,3,,257
2012-10-17,87,81,75,77,74,72,94,75,58,29.92,29.85,29.77,6,6,5,7,3,,0.00,3,,304
2012-10-18,84,78,73,79,76,73,100,88,74,29.89,29.84,29.77,6,6,2,7,2,,0.00,3,Rain-Thunderstorm,216
2012-10-19,86,80,75,79,77,75,100,82,74,29.86,29.81,29.74,6,5,2,7,3,,0.00,4,Rain-Thunderstorm,161
2012-10-20,86,82,77,79,76,72,100,81,66,29.86,29.79,29.74,6,5,2,7,3,,0.00,3,Rain-Thunderstorm,190
2012-10-21,86,80,73,77,76,72,94,86,74,29.86,29.80,29.74,6,5,1,7,1,,0.00,3,Rain-Thunderstorm,306
2012-10-22,87,81,75,79,77,73,100,83,66,29.83,29.77,29.68,6,5,2,9,3,,0.00,3,Rain-Thunderstorm,199
2012-10-23,87,79,71,79,76,72,100,81,70,29.77,29.72,29.65,6,6,6,9,4,,0.00,3,,303
2012-10-24,87,82,77,77,76,73,94,76,62,29.80,29.74,29.68,6,6,6,9,3,,0.00,3,Thunderstorm,236
2012-10-25,87,80,73,77,75,72,100,78,66,29.83,29.79,29.74,6,6,4,7,3,,0.00,3,Thunderstorm,236
2012-10-26,86,80,73,77,76,73,100,84,66,29.86,29.81,29.77,6,5,1,5,2,,0.00,3,Fog-Rain-Thunderstorm,161
2012-10-27,89,81,73,77,74,72,100,75,55,29.86,29.81,29.74,6,6,5,7,3,,0.00,3,Thunderstorm,230
2012-10-28,89,84,78,75,73,64,78,64,46,29.89,29.83,29.77,6,6,6,5,4,,0.00,3,,311
2012-10-29,91,81,71,75,73,70,100,70,49,29.89,29.86,29.80,6,6,6,7,4,,0.00,3,Fog-Thunderstorm,324
2012-10-30,89,82,75,75,73,70,94,71,52,29.92,29.88,29.83,6,6,6,7,1,,0.00,3,,100
2012-10-31,87,79,71,73,71,70,94,69,55,29.95,29.90,29.83,6,6,6,7,2,,0.00,1,,350